sensor_id;sensor_type;location;lat;lon;timestamp;temperature;humidity
84090;SHT35;74178;52.136;5.424;2024-02-21T00:01:18;9.85;83.59
84090;SHT35;74178;52.136;5.424;2024-02-21T00:03:49;9.85;83.87
84090;SHT35;74178;52.136;5.424;2024-02-21T00:06:19;9.86;83.59
84090;SHT35;74178;52.136;5.424;2024-02-21T00:08:49;9.86;83.53
84090;SHT35;74178;52.136;5.424;2024-02-21T00:11:20;9.85;83.07
84090;SHT35;74178;52.136;5.424;2024-02-21T00:13:52;9.83;83.41
84090;SHT35;74178;52.136;5.424;2024-02-21T00:16:22;9.80;83.10
84090;SHT35;74178;52.136;5.424;2024-02-21T00:18:53;9.77;83.33
84090;SHT35;74178;52.136;5.424;2024-02-21T00:21:24;9.75;83.56
84090;SHT35;74178;52.136;5.424;2024-02-21T00:23:56;9.73;83.81
84090;SHT35;74178;52.136;5.424;2024-02-21T00:26:26;9.72;83.50
84090;SHT35;74178;52.136;5.424;2024-02-21T00:28:57;9.71;84.02
84090;SHT35;74178;52.136;5.424;2024-02-21T00:31:27;9.70;84.07
84090;SHT35;74178;52.136;5.424;2024-02-21T00:33:57;9.69;83.88
84090;SHT35;74178;52.136;5.424;2024-02-21T00:36:27;9.68;83.94
84090;SHT35;74178;52.136;5.424;2024-02-21T00:38:58;9.68;84.15
84090;SHT35;74178;52.136;5.424;2024-02-21T00:41:28;9.69;84.25
84090;SHT35;74178;52.136;5.424;2024-02-21T00:43:58;9.68;84.11
84090;SHT35;74178;52.136;5.424;2024-02-21T00:46:29;9.68;84.26
84090;SHT35;74178;52.136;5.424;2024-02-21T00:48:59;9.66;84.17
84090;SHT35;74178;52.136;5.424;2024-02-21T00:51:29;9.67;84.45
84090;SHT35;74178;52.136;5.424;2024-02-21T00:54:00;9.69;84.48
84090;SHT35;74178;52.136;5.424;2024-02-21T00:56:30;9.71;84.14
84090;SHT35;74178;52.136;5.424;2024-02-21T00:59:01;9.71;84.69
84090;SHT35;74178;52.136;5.424;2024-02-21T01:01:31;9.72;84.51
84090;SHT35;74178;52.136;5.424;2024-02-21T01:04:01;9.75;84.29
84090;SHT35;74178;52.136;5.424;2024-02-21T01:06:32;9.77;84.14
84090;SHT35;74178;52.136;5.424;2024-02-21T01:09:07;9.77;84.33
84090;SHT35;74178;52.136;5.424;2024-02-21T01:11:37;9.78;84.08
84090;SHT35;74178;52.136;5.424;2024-02-21T01:14:07;9.79;84.28
84090;SHT35;74178;52.136;5.424;2024-02-21T01:16:37;9.81;83.79
84090;SHT35;74178;52.136;5.424;2024-02-21T01:19:08;9.82;84.01
84090;SHT35;74178;52.136;5.424;2024-02-21T01:21:39;9.82;84.06
84090;SHT35;74178;52.136;5.424;2024-02-21T01:24:10;9.83;84.03
84090;SHT35;74178;52.136;5.424;2024-02-21T01:26:41;9.84;83.90
84090;SHT35;74178;52.136;5.424;2024-02-21T01:29:13;9.85;83.74
84090;SHT35;74178;52.136;5.424;2024-02-21T01:31:43;9.86;84.10
84090;SHT35;74178;52.136;5.424;2024-02-21T01:34:14;9.86;83.33
84090;SHT35;74178;52.136;5.424;2024-02-21T01:36:44;9.86;83.70
84090;SHT35;74178;52.136;5.424;2024-02-21T01:39:14;9.88;83.62
84090;SHT35;74178;52.136;5.424;2024-02-21T01:41:45;9.88;83.40
84090;SHT35;74178;52.136;5.424;2024-02-21T01:44:15;9.87;83.24
84090;SHT35;74178;52.136;5.424;2024-02-21T01:46:45;9.87;83.27
84090;SHT35;74178;52.136;5.424;2024-02-21T01:49:16;9.88;83.28
84090;SHT35;74178;52.136;5.424;2024-02-21T01:51:48;9.89;83.40
84090;SHT35;74178;52.136;5.424;2024-02-21T01:54:19;9.89;83.29
84090;SHT35;74178;52.136;5.424;2024-02-21T01:56:49;9.89;83.76
84090;SHT35;74178;52.136;5.424;2024-02-21T01:59:21;9.89;83.67
84090;SHT35;74178;52.136;5.424;2024-02-21T02:01:52;9.90;83.08
84090;SHT35;74178;52.136;5.424;2024-02-21T02:04:24;9.90;83.37
84090;SHT35;74178;52.136;5.424;2024-02-21T02:06:56;9.91;83.17
84090;SHT35;74178;52.136;5.424;2024-02-21T02:09:27;9.91;82.63
84090;SHT35;74178;52.136;5.424;2024-02-21T02:11:57;9.90;83.14
84090;SHT35;74178;52.136;5.424;2024-02-21T02:14:28;9.89;83.14
84090;SHT35;74178;52.136;5.424;2024-02-21T02:16:58;9.88;82.92
84090;SHT35;74178;52.136;5.424;2024-02-21T02:19:28;9.87;83.11
84090;SHT35;74178;52.136;5.424;2024-02-21T02:22:09;9.87;83.42
84090;SHT35;74178;52.136;5.424;2024-02-21T02:24:44;9.86;83.32
84090;SHT35;74178;52.136;5.424;2024-02-21T02:27:14;9.85;83.54
84090;SHT35;74178;52.136;5.424;2024-02-21T02:29:44;9.85;83.40
84090;SHT35;74178;52.136;5.424;2024-02-21T02:32:14;9.85;83.58
84090;SHT35;74178;52.136;5.424;2024-02-21T02:34:45;9.85;83.30
84090;SHT35;74178;52.136;5.424;2024-02-21T02:37:15;9.85;83.46
84090;SHT35;74178;52.136;5.424;2024-02-21T02:39:45;9.86;83.53
84090;SHT35;74178;52.136;5.424;2024-02-21T02:42:16;9.86;83.27
84090;SHT35;74178;52.136;5.424;2024-02-21T02:44:46;9.86;83.34
84090;SHT35;74178;52.136;5.424;2024-02-21T02:47:17;9.86;83.56
84090;SHT35;74178;52.136;5.424;2024-02-21T02:49:50;9.88;83.27
84090;SHT35;74178;52.136;5.424;2024-02-21T02:52:20;9.89;83.36
84090;SHT35;74178;52.136;5.424;2024-02-21T02:54:50;9.90;83.50
84090;SHT35;74178;52.136;5.424;2024-02-21T02:57:21;9.91;83.21
84090;SHT35;74178;52.136;5.424;2024-02-21T02:59:52;9.93;82.97
84090;SHT35;74178;52.136;5.424;2024-02-21T03:02:22;9.94;83.36
84090;SHT35;74178;52.136;5.424;2024-02-21T03:04:52;9.95;83.41
84090;SHT35;74178;52.136;5.424;2024-02-21T03:07:25;9.96;83.20
84090;SHT35;74178;52.136;5.424;2024-02-21T03:09:55;9.97;83.08
84090;SHT35;74178;52.136;5.424;2024-02-21T03:12:25;9.98;82.69
84090;SHT35;74178;52.136;5.424;2024-02-21T03:14:56;9.98;83.07
84090;SHT35;74178;52.136;5.424;2024-02-21T03:17:27;9.97;82.73
84090;SHT35;74178;52.136;5.424;2024-02-21T03:19:57;9.96;82.49
84090;SHT35;74178;52.136;5.424;2024-02-21T03:22:29;9.94;82.81
84090;SHT35;74178;52.136;5.424;2024-02-21T03:24:59;9.92;83.31
84090;SHT35;74178;52.136;5.424;2024-02-21T03:27:29;9.91;83.14
84090;SHT35;74178;52.136;5.424;2024-02-21T03:30:00;9.92;83.20
84090;SHT35;74178;52.136;5.424;2024-02-21T03:32:30;9.93;83.40
84090;SHT35;74178;52.136;5.424;2024-02-21T03:35:01;9.93;83.53
84090;SHT35;74178;52.136;5.424;2024-02-21T03:37:31;9.92;82.78
84090;SHT35;74178;52.136;5.424;2024-02-21T03:40:02;9.91;82.86
84090;SHT35;74178;52.136;5.424;2024-02-21T03:42:36;9.90;82.71
84090;SHT35;74178;52.136;5.424;2024-02-21T03:45:06;9.89;83.17
84090;SHT35;74178;52.136;5.424;2024-02-21T03:47:37;9.88;83.09
84090;SHT35;74178;52.136;5.424;2024-02-21T03:50:07;9.86;82.90
84090;SHT35;74178;52.136;5.424;2024-02-21T03:52:38;9.85;83.03
84090;SHT35;74178;52.136;5.424;2024-02-21T03:55:08;9.84;82.91
84090;SHT35;74178;52.136;5.424;2024-02-21T03:57:41;9.83;83.24
84090;SHT35;74178;52.136;5.424;2024-02-21T04:00:12;9.82;83.15
84090;SHT35;74178;52.136;5.424;2024-02-21T04:02:43;9.82;83.12
84090;SHT35;74178;52.136;5.424;2024-02-21T04:05:16;9.81;83.15
84090;SHT35;74178;52.136;5.424;2024-02-21T04:07:46;9.81;83.44
84090;SHT35;74178;52.136;5.424;2024-02-21T04:10:16;9.81;83.42
84090;SHT35;74178;52.136;5.424;2024-02-21T04:12:46;9.79;83.09
84090;SHT35;74178;52.136;5.424;2024-02-21T04:15:19;9.79;83.45
84090;SHT35;74178;52.136;5.424;2024-02-21T04:17:49;9.79;83.25
84090;SHT35;74178;52.136;5.424;2024-02-21T04:20:20;9.77;83.41
84090;SHT35;74178;52.136;5.424;2024-02-21T04:22:50;9.76;83.24
84090;SHT35;74178;52.136;5.424;2024-02-21T04:25:21;9.75;82.95
84090;SHT35;74178;52.136;5.424;2024-02-21T04:27:51;9.76;83.18
84090;SHT35;74178;52.136;5.424;2024-02-21T04:30:22;9.75;83.11
84090;SHT35;74178;52.136;5.424;2024-02-21T04:32:53;9.74;82.93
84090;SHT35;74178;52.136;5.424;2024-02-21T04:35:24;9.72;83.08
84090;SHT35;74178;52.136;5.424;2024-02-21T04:37:54;9.72;83.16
84090;SHT35;74178;52.136;5.424;2024-02-21T04:40:25;9.71;83.21
84090;SHT35;74178;52.136;5.424;2024-02-21T04:42:55;9.70;83.40
84090;SHT35;74178;52.136;5.424;2024-02-21T04:45:25;9.69;83.28
84090;SHT35;74178;52.136;5.424;2024-02-21T04:47:55;9.70;83.35
84090;SHT35;74178;52.136;5.424;2024-02-21T04:50:26;9.69;83.42
84090;SHT35;74178;52.136;5.424;2024-02-21T04:52:56;9.70;83.03
84090;SHT35;74178;52.136;5.424;2024-02-21T04:55:27;9.69;83.01
84090;SHT35;74178;52.136;5.424;2024-02-21T04:57:57;9.68;83.15
84090;SHT35;74178;52.136;5.424;2024-02-21T05:00:27;9.66;82.94
84090;SHT35;74178;52.136;5.424;2024-02-21T05:02:57;9.65;83.19
84090;SHT35;74178;52.136;5.424;2024-02-21T05:05:28;9.64;83.08
84090;SHT35;74178;52.136;5.424;2024-02-21T05:08:07;9.63;83.13
84090;SHT35;74178;52.136;5.424;2024-02-21T05:10:37;9.63;83.31
84090;SHT35;74178;52.136;5.424;2024-02-21T05:13:08;9.62;83.45
84090;SHT35;74178;52.136;5.424;2024-02-21T05:15:39;9.61;83.36
84090;SHT35;74178;52.136;5.424;2024-02-21T05:18:09;9.61;83.24
84090;SHT35;74178;52.136;5.424;2024-02-21T05:20:40;9.61;83.31
84090;SHT35;74178;52.136;5.424;2024-02-21T05:23:10;9.63;83.46
84090;SHT35;74178;52.136;5.424;2024-02-21T05:25:40;9.64;83.42
84090;SHT35;74178;52.136;5.424;2024-02-21T05:28:10;9.64;83.34
84090;SHT35;74178;52.136;5.424;2024-02-21T05:30:41;9.63;83.52
84090;SHT35;74178;52.136;5.424;2024-02-21T05:33:12;9.63;83.10
84090;SHT35;74178;52.136;5.424;2024-02-21T05:35:50;9.62;82.60
84090;SHT35;74178;52.136;5.424;2024-02-21T05:38:21;9.61;83.01
84090;SHT35;74178;52.136;5.424;2024-02-21T05:40:51;9.61;83.28
84090;SHT35;74178;52.136;5.424;2024-02-21T05:43:21;9.60;83.25
84090;SHT35;74178;52.136;5.424;2024-02-21T05:45:52;9.60;83.00
84090;SHT35;74178;52.136;5.424;2024-02-21T05:48:23;9.60;83.14
84090;SHT35;74178;52.136;5.424;2024-02-21T05:50:53;9.60;83.35
84090;SHT35;74178;52.136;5.424;2024-02-21T05:53:24;9.60;83.36
84090;SHT35;74178;52.136;5.424;2024-02-21T05:55:54;9.60;83.26
84090;SHT35;74178;52.136;5.424;2024-02-21T05:58:24;9.60;83.28
84090;SHT35;74178;52.136;5.424;2024-02-21T06:00:54;9.60;83.16
84090;SHT35;74178;52.136;5.424;2024-02-21T06:03:25;9.60;83.02
84090;SHT35;74178;52.136;5.424;2024-02-21T06:05:55;9.60;83.20
84090;SHT35;74178;52.136;5.424;2024-02-21T06:08:26;9.59;83.09
84090;SHT35;74178;52.136;5.424;2024-02-21T06:10:56;9.57;82.97
84090;SHT35;74178;52.136;5.424;2024-02-21T06:13:27;9.56;83.36
84090;SHT35;74178;52.136;5.424;2024-02-21T06:15:57;9.56;83.38
84090;SHT35;74178;52.136;5.424;2024-02-21T06:18:28;9.57;83.35
84090;SHT35;74178;52.136;5.424;2024-02-21T06:20:58;9.57;83.48
84090;SHT35;74178;52.136;5.424;2024-02-21T06:23:29;9.57;83.18
84090;SHT35;74178;52.136;5.424;2024-02-21T06:25:59;9.57;83.61
84090;SHT35;74178;52.136;5.424;2024-02-21T06:28:30;9.57;83.21
84090;SHT35;74178;52.136;5.424;2024-02-21T06:31:00;9.57;83.13
84090;SHT35;74178;52.136;5.424;2024-02-21T06:33:31;9.57;83.49
84090;SHT35;74178;52.136;5.424;2024-02-21T06:36:01;9.56;83.28
84090;SHT35;74178;52.136;5.424;2024-02-21T06:38:32;9.54;83.06
84090;SHT35;74178;52.136;5.424;2024-02-21T06:41:03;9.52;83.28
84090;SHT35;74178;52.136;5.424;2024-02-21T06:43:33;9.50;83.22
84090;SHT35;74178;52.136;5.424;2024-02-21T06:46:04;9.47;83.18
84090;SHT35;74178;52.136;5.424;2024-02-21T06:48:34;9.45;83.32
84090;SHT35;74178;52.136;5.424;2024-02-21T06:51:05;9.43;83.73
84090;SHT35;74178;52.136;5.424;2024-02-21T06:53:35;9.42;83.82
84090;SHT35;74178;52.136;5.424;2024-02-21T06:56:06;9.40;83.32
84090;SHT35;74178;52.136;5.424;2024-02-21T06:58:37;9.39;83.75
84090;SHT35;74178;52.136;5.424;2024-02-21T07:01:08;9.37;83.68
84090;SHT35;74178;52.136;5.424;2024-02-21T07:03:38;9.36;83.78
84090;SHT35;74178;52.136;5.424;2024-02-21T07:06:08;9.35;84.00
84090;SHT35;74178;52.136;5.424;2024-02-21T07:08:39;9.35;83.76
84090;SHT35;74178;52.136;5.424;2024-02-21T07:11:09;9.35;83.70
84090;SHT35;74178;52.136;5.424;2024-02-21T07:13:41;9.35;83.66
84090;SHT35;74178;52.136;5.424;2024-02-21T07:16:11;9.36;83.79
84090;SHT35;74178;52.136;5.424;2024-02-21T07:18:42;9.35;83.58
84090;SHT35;74178;52.136;5.424;2024-02-21T07:21:13;9.35;83.72
84090;SHT35;74178;52.136;5.424;2024-02-21T07:23:44;9.35;83.50
84090;SHT35;74178;52.136;5.424;2024-02-21T07:26:14;9.35;83.49
84090;SHT35;74178;52.136;5.424;2024-02-21T07:28:44;9.35;83.46
84090;SHT35;74178;52.136;5.424;2024-02-21T07:31:15;9.35;83.49
84090;SHT35;74178;52.136;5.424;2024-02-21T07:33:46;9.36;83.90
84090;SHT35;74178;52.136;5.424;2024-02-21T07:36:30;9.38;83.40
84090;SHT35;74178;52.136;5.424;2024-02-21T07:39:00;9.38;83.30
84090;SHT35;74178;52.136;5.424;2024-02-21T07:41:32;9.39;83.15
84090;SHT35;74178;52.136;5.424;2024-02-21T07:44:03;9.40;83.28
84090;SHT35;74178;52.136;5.424;2024-02-21T07:46:34;9.40;83.26
84090;SHT35;74178;52.136;5.424;2024-02-21T07:49:04;9.41;82.85
84090;SHT35;74178;52.136;5.424;2024-02-21T07:51:34;9.42;83.26
84090;SHT35;74178;52.136;5.424;2024-02-21T07:54:05;9.45;83.11
84090;SHT35;74178;52.136;5.424;2024-02-21T07:56:38;9.48;83.05
84090;SHT35;74178;52.136;5.424;2024-02-21T07:59:08;9.53;83.04
84090;SHT35;74178;52.136;5.424;2024-02-21T08:01:38;9.57;82.88
84090;SHT35;74178;52.136;5.424;2024-02-21T08:04:09;9.61;82.77
84090;SHT35;74178;52.136;5.424;2024-02-21T08:06:39;9.64;81.98
84090;SHT35;74178;52.136;5.424;2024-02-21T08:09:10;9.65;81.92
84090;SHT35;74178;52.136;5.424;2024-02-21T08:11:40;9.67;82.14
84090;SHT35;74178;52.136;5.424;2024-02-21T08:14:11;9.68;81.64
84090;SHT35;74178;52.136;5.424;2024-02-21T08:16:44;9.69;81.41
84090;SHT35;74178;52.136;5.424;2024-02-21T08:19:14;9.71;81.51
84090;SHT35;74178;52.136;5.424;2024-02-21T08:21:45;9.75;81.89
84090;SHT35;74178;52.136;5.424;2024-02-21T08:24:16;9.81;82.03
84090;SHT35;74178;52.136;5.424;2024-02-21T08:26:46;9.85;81.37
84090;SHT35;74178;52.136;5.424;2024-02-21T08:29:17;9.90;80.76
84090;SHT35;74178;52.136;5.424;2024-02-21T08:31:48;9.93;80.78
84090;SHT35;74178;52.136;5.424;2024-02-21T08:34:18;9.98;81.59
84090;SHT35;74178;52.136;5.424;2024-02-21T08:36:49;10.03;80.73
84090;SHT35;74178;52.136;5.424;2024-02-21T08:39:19;10.06;80.11
84090;SHT35;74178;52.136;5.424;2024-02-21T08:41:50;10.10;80.41
84090;SHT35;74178;52.136;5.424;2024-02-21T08:44:29;10.13;80.05
84090;SHT35;74178;52.136;5.424;2024-02-21T08:47:00;10.15;80.72
84090;SHT35;74178;52.136;5.424;2024-02-21T08:49:33;10.18;79.91
84090;SHT35;74178;52.136;5.424;2024-02-21T08:52:05;10.23;80.25
84090;SHT35;74178;52.136;5.424;2024-02-21T08:54:36;10.27;79.88
84090;SHT35;74178;52.136;5.424;2024-02-21T08:57:06;10.30;79.67
84090;SHT35;74178;52.136;5.424;2024-02-21T08:59:36;10.32;79.46
84090;SHT35;74178;52.136;5.424;2024-02-21T09:02:07;10.35;79.34
84090;SHT35;74178;52.136;5.424;2024-02-21T09:04:38;10.38;79.42
84090;SHT35;74178;52.136;5.424;2024-02-21T09:07:12;10.41;78.34
84090;SHT35;74178;52.136;5.424;2024-02-21T09:09:43;10.43;78.02
84090;SHT35;74178;52.136;5.424;2024-02-21T09:12:14;10.46;78.91
84090;SHT35;74178;52.136;5.424;2024-02-21T09:14:45;10.50;78.81
84090;SHT35;74178;52.136;5.424;2024-02-21T09:17:18;10.53;78.00
84090;SHT35;74178;52.136;5.424;2024-02-21T09:19:52;10.57;77.38
84090;SHT35;74178;52.136;5.424;2024-02-21T09:22:25;10.60;77.76
84090;SHT35;74178;52.136;5.424;2024-02-21T09:24:56;10.63;77.25
84090;SHT35;74178;52.136;5.424;2024-02-21T09:27:26;10.65;76.63
84090;SHT35;74178;52.136;5.424;2024-02-21T09:29:57;10.67;76.37
84090;SHT35;74178;52.136;5.424;2024-02-21T09:32:28;10.69;77.66
84090;SHT35;74178;52.136;5.424;2024-02-21T09:34:59;10.72;77.32
84090;SHT35;74178;52.136;5.424;2024-02-21T09:37:32;10.77;76.87
84090;SHT35;74178;52.136;5.424;2024-02-21T09:40:03;10.81;76.85
84090;SHT35;74178;52.136;5.424;2024-02-21T09:42:39;10.85;75.49
84090;SHT35;74178;52.136;5.424;2024-02-21T09:50:34;10.91;76.02
84090;SHT35;74178;52.136;5.424;2024-02-21T09:53:07;10.93;75.40
84090;SHT35;74178;52.136;5.424;2024-02-21T09:55:38;10.93;74.86
84090;SHT35;74178;52.136;5.424;2024-02-21T09:58:10;10.95;75.78
84090;SHT35;74178;52.136;5.424;2024-02-21T10:00:42;10.96;75.03
84090;SHT35;74178;52.136;5.424;2024-02-21T10:03:13;10.96;75.09
84090;SHT35;74178;52.136;5.424;2024-02-21T10:05:48;10.95;74.75
84090;SHT35;74178;52.136;5.424;2024-02-21T10:08:20;10.96;75.79
84090;SHT35;74178;52.136;5.424;2024-02-21T10:10:51;10.97;75.02
84090;SHT35;74178;52.136;5.424;2024-02-21T10:13:25;11.00;74.68
84090;SHT35;74178;52.136;5.424;2024-02-21T10:18:01;11.53;71.95
84090;SHT35;74178;52.136;5.424;2024-02-21T10:20:37;14.93;57.76
84090;SHT35;74178;52.136;5.424;2024-02-21T10:23:09;14.51;58.21
84090;SHT35;74178;52.136;5.424;2024-02-21T10:25:40;14.21;59.30
84090;SHT35;74178;52.136;5.424;2024-02-21T10:28:15;14.08;60.35
84090;SHT35;74178;52.136;5.424;2024-02-21T10:30:50;13.93;60.32
84090;SHT35;74178;52.136;5.424;2024-02-21T10:33:21;13.91;61.48
84090;SHT35;74178;52.136;5.424;2024-02-21T10:35:53;13.88;60.83
84090;SHT35;74178;52.136;5.424;2024-02-21T10:38:23;13.85;61.64
84090;SHT35;74178;52.136;5.424;2024-02-21T10:40:54;13.89;61.84
84090;SHT35;74178;52.136;5.424;2024-02-21T10:43:28;13.96;62.17
84090;SHT35;74178;52.136;5.424;2024-02-21T10:46:04;13.96;61.74
84090;SHT35;74178;52.136;5.424;2024-02-21T10:48:46;13.96;61.43
84090;SHT35;74178;52.136;5.424;2024-02-21T10:51:19;13.90;61.70
84090;SHT35;74178;52.136;5.424;2024-02-21T10:56:54;13.72;62.37
84090;SHT35;74178;52.136;5.424;2024-02-21T10:59:27;13.62;62.86
84090;SHT35;74178;52.136;5.424;2024-02-21T11:01:59;13.58;63.17
84090;SHT35;74178;52.136;5.424;2024-02-21T11:04:32;13.61;63.09
84090;SHT35;74178;52.136;5.424;2024-02-21T11:07:06;13.64;63.09
84090;SHT35;74178;52.136;5.424;2024-02-21T11:09:39;13.66;63.96
84090;SHT35;74178;52.136;5.424;2024-02-21T11:12:09;13.62;63.17
84090;SHT35;74178;52.136;5.424;2024-02-21T11:14:41;13.57;64.07
84090;SHT35;74178;52.136;5.424;2024-02-21T11:17:16;13.50;63.85
84090;SHT35;74178;52.136;5.424;2024-02-21T11:19:48;13.42;64.07
84090;SHT35;74178;52.136;5.424;2024-02-21T11:22:20;13.30;64.84
84090;SHT35;74178;52.136;5.424;2024-02-21T11:24:52;13.15;64.77
84090;SHT35;74178;52.136;5.424;2024-02-21T11:27:23;13.01;65.50
84090;SHT35;74178;52.136;5.424;2024-02-21T11:29:57;12.92;65.63
84090;SHT35;74178;52.136;5.424;2024-02-21T11:32:28;12.83;65.98
84090;SHT35;74178;52.136;5.424;2024-02-21T11:35:03;12.80;66.50
84090;SHT35;74178;52.136;5.424;2024-02-21T11:37:36;12.79;66.85
84090;SHT35;74178;52.136;5.424;2024-02-21T11:40:09;12.74;66.62
84090;SHT35;74178;52.136;5.424;2024-02-21T11:42:41;12.68;66.75
84090;SHT35;74178;52.136;5.424;2024-02-21T11:45:15;12.62;66.71
84090;SHT35;74178;52.136;5.424;2024-02-21T11:47:46;12.59;66.96
84090;SHT35;74178;52.136;5.424;2024-02-21T11:50:17;12.55;67.21
84090;SHT35;74178;52.136;5.424;2024-02-21T11:52:49;12.50;66.98
84090;SHT35;74178;52.136;5.424;2024-02-21T11:55:20;12.46;67.27
84090;SHT35;74178;52.136;5.424;2024-02-21T11:57:52;12.44;67.32
84090;SHT35;74178;52.136;5.424;2024-02-21T12:00:23;12.43;67.36
84090;SHT35;74178;52.136;5.424;2024-02-21T12:02:55;12.47;67.95
84090;SHT35;74178;52.136;5.424;2024-02-21T12:05:31;12.70;66.78
84090;SHT35;74178;52.136;5.424;2024-02-21T12:08:02;12.90;66.56
84090;SHT35;74178;52.136;5.424;2024-02-21T12:10:36;13.13;66.20
84090;SHT35;74178;52.136;5.424;2024-02-21T12:13:09;13.34;65.45
84090;SHT35;74178;52.136;5.424;2024-02-21T12:15:40;13.52;64.30
84090;SHT35;74178;52.136;5.424;2024-02-21T12:18:10;13.65;64.04
84090;SHT35;74178;52.136;5.424;2024-02-21T12:20:41;13.82;64.03
84090;SHT35;74178;52.136;5.424;2024-02-21T12:23:11;14.00;63.24
84090;SHT35;74178;52.136;5.424;2024-02-21T12:25:42;14.13;62.68
84090;SHT35;74178;52.136;5.424;2024-02-21T12:28:13;14.24;61.90
84090;SHT35;74178;52.136;5.424;2024-02-21T12:30:43;14.29;61.95
84090;SHT35;74178;52.136;5.424;2024-02-21T12:33:14;14.30;61.77
84090;SHT35;74178;52.136;5.424;2024-02-21T12:35:44;14.31;61.63
84090;SHT35;74178;52.136;5.424;2024-02-21T12:38:15;14.33;61.68
84090;SHT35;74178;52.136;5.424;2024-02-21T12:40:47;14.31;61.21
84090;SHT35;74178;52.136;5.424;2024-02-21T12:43:17;14.26;61.05
84090;SHT35;74178;52.136;5.424;2024-02-21T12:45:50;14.23;61.78
84090;SHT35;74178;52.136;5.424;2024-02-21T12:48:20;14.17;61.63
84090;SHT35;74178;52.136;5.424;2024-02-21T12:50:51;14.12;61.97
84090;SHT35;74178;52.136;5.424;2024-02-21T12:53:22;14.07;61.75
84090;SHT35;74178;52.136;5.424;2024-02-21T12:56:01;14.07;62.11
84090;SHT35;74178;52.136;5.424;2024-02-21T12:58:34;14.08;62.44
84090;SHT35;74178;52.136;5.424;2024-02-21T13:01:05;14.09;62.64
84090;SHT35;74178;52.136;5.424;2024-02-21T13:03:35;14.13;62.45
84090;SHT35;74178;52.136;5.424;2024-02-21T13:06:05;14.12;61.76
84090;SHT35;74178;52.136;5.424;2024-02-21T13:08:40;14.09;61.75
84090;SHT35;74178;52.136;5.424;2024-02-21T13:11:11;14.04;62.38
84090;SHT35;74178;52.136;5.424;2024-02-21T13:13:42;14.08;62.22
84090;SHT35;74178;52.136;5.424;2024-02-21T13:16:12;14.09;62.13
84090;SHT35;74178;52.136;5.424;2024-02-21T13:18:43;14.10;62.40
84090;SHT35;74178;52.136;5.424;2024-02-21T13:21:17;14.11;61.85
84090;SHT35;74178;52.136;5.424;2024-02-21T13:23:48;14.06;62.31
84090;SHT35;74178;52.136;5.424;2024-02-21T13:26:19;14.04;62.27
84090;SHT35;74178;52.136;5.424;2024-02-21T13:28:49;13.99;62.38
84090;SHT35;74178;52.136;5.424;2024-02-21T13:31:20;13.95;62.43
84090;SHT35;74178;52.136;5.424;2024-02-21T13:33:51;13.86;62.47
84090;SHT35;74178;52.136;5.424;2024-02-21T13:36:22;13.78;62.08
84090;SHT35;74178;52.136;5.424;2024-02-21T13:38:52;13.72;62.53
84090;SHT35;74178;52.136;5.424;2024-02-21T13:41:22;13.61;62.29
84090;SHT35;74178;52.136;5.424;2024-02-21T13:43:53;13.56;62.94
84090;SHT35;74178;52.136;5.424;2024-02-21T13:46:23;13.50;62.99
84090;SHT35;74178;52.136;5.424;2024-02-21T13:49:03;13.50;63.93
84090;SHT35;74178;52.136;5.424;2024-02-21T13:51:35;13.55;63.80
84090;SHT35;74178;52.136;5.424;2024-02-21T13:54:05;13.51;64.19
84090;SHT35;74178;52.136;5.424;2024-02-21T13:56:38;13.48;63.49
84090;SHT35;74178;52.136;5.424;2024-02-21T13:59:09;13.47;63.24
84090;SHT35;74178;52.136;5.424;2024-02-21T14:01:39;13.51;63.65
84090;SHT35;74178;52.136;5.424;2024-02-21T14:04:10;13.53;63.19
84090;SHT35;74178;52.136;5.424;2024-02-21T14:06:41;13.50;62.70
84090;SHT35;74178;52.136;5.424;2024-02-21T14:09:12;13.50;63.22
84090;SHT35;74178;52.136;5.424;2024-02-21T14:11:43;13.46;63.30
84090;SHT35;74178;52.136;5.424;2024-02-21T14:14:14;13.39;62.63
84090;SHT35;74178;52.136;5.424;2024-02-21T14:16:44;13.36;62.97
84090;SHT35;74178;52.136;5.424;2024-02-21T14:19:16;13.32;63.11
84090;SHT35;74178;52.136;5.424;2024-02-21T14:21:48;13.29;63.76
84090;SHT35;74178;52.136;5.424;2024-02-21T14:24:18;13.29;63.59
84090;SHT35;74178;52.136;5.424;2024-02-21T14:26:49;13.31;63.77
84090;SHT35;74178;52.136;5.424;2024-02-21T14:29:21;13.36;63.36
84090;SHT35;74178;52.136;5.424;2024-02-21T14:31:51;13.38;63.28
84090;SHT35;74178;52.136;5.424;2024-02-21T14:34:21;13.35;62.74
84090;SHT35;74178;52.136;5.424;2024-02-21T14:36:52;13.33;62.68
84090;SHT35;74178;52.136;5.424;2024-02-21T14:39:22;13.33;63.16
84090;SHT35;74178;52.136;5.424;2024-02-21T14:41:54;13.32;63.07
84090;SHT35;74178;52.136;5.424;2024-02-21T14:44:24;13.33;63.20
84090;SHT35;74178;52.136;5.424;2024-02-21T14:46:55;13.32;63.33
84090;SHT35;74178;52.136;5.424;2024-02-21T14:49:25;13.28;64.02
84090;SHT35;74178;52.136;5.424;2024-02-21T14:51:58;13.24;63.97
84090;SHT35;74178;52.136;5.424;2024-02-21T14:54:28;13.17;63.53
84090;SHT35;74178;52.136;5.424;2024-02-21T14:56:59;13.11;63.77
84090;SHT35;74178;52.136;5.424;2024-02-21T14:59:31;13.00;64.56
84090;SHT35;74178;52.136;5.424;2024-02-21T15:02:03;12.94;65.96
84090;SHT35;74178;52.136;5.424;2024-02-21T15:04:34;12.81;65.79
84090;SHT35;74178;52.136;5.424;2024-02-21T15:07:04;12.75;66.97
84090;SHT35;74178;52.136;5.424;2024-02-21T15:09:35;12.66;67.73
84090;SHT35;74178;52.136;5.424;2024-02-21T15:12:05;12.57;68.35
84090;SHT35;74178;52.136;5.424;2024-02-21T15:14:40;12.48;68.85
84090;SHT35;74178;52.136;5.424;2024-02-21T15:17:12;12.41;69.29
84090;SHT35;74178;52.136;5.424;2024-02-21T15:19:44;12.27;69.32
84090;SHT35;74178;52.136;5.424;2024-02-21T15:22:14;12.18;70.05
84090;SHT35;74178;52.136;5.424;2024-02-21T15:24:47;12.04;71.02
84090;SHT35;74178;52.136;5.424;2024-02-21T15:27:18;11.94;71.67
84090;SHT35;74178;52.136;5.424;2024-02-21T15:29:48;11.83;72.21
84090;SHT35;74178;52.136;5.424;2024-02-21T15:32:19;11.74;72.38
84090;SHT35;74178;52.136;5.424;2024-02-21T15:34:52;11.65;72.97
84090;SHT35;74178;52.136;5.424;2024-02-21T15:37:22;11.58;73.09
84090;SHT35;74178;52.136;5.424;2024-02-21T15:39:54;11.51;73.64
84090;SHT35;74178;52.136;5.424;2024-02-21T15:42:24;11.46;73.75
84090;SHT35;74178;52.136;5.424;2024-02-21T15:44:55;11.39;74.30
84090;SHT35;74178;52.136;5.424;2024-02-21T15:47:25;11.32;74.31
84090;SHT35;74178;52.136;5.424;2024-02-21T15:49:57;11.27;75.03
84090;SHT35;74178;52.136;5.424;2024-02-21T15:52:29;11.24;75.08
84090;SHT35;74178;52.136;5.424;2024-02-21T15:55:00;11.20;75.37
84090;SHT35;74178;52.136;5.424;2024-02-21T15:57:33;11.18;75.61
84090;SHT35;74178;52.136;5.424;2024-02-21T16:00:04;11.14;75.54
84090;SHT35;74178;52.136;5.424;2024-02-21T16:02:37;11.11;75.95
84090;SHT35;74178;52.136;5.424;2024-02-21T16:05:10;11.09;76.03
84090;SHT35;74178;52.136;5.424;2024-02-21T16:07:41;11.05;76.06
84090;SHT35;74178;52.136;5.424;2024-02-21T16:10:12;11.03;76.09
84090;SHT35;74178;52.136;5.424;2024-02-21T16:12:43;10.97;76.12
84090;SHT35;74178;52.136;5.424;2024-02-21T16:15:14;10.95;76.89